Time;durP1;ratioP1;P1;durP2;ratioP2;P2;SDS_P1;SDS_P2;PMS_P1;PMS_P2;Temp;Humidity;BMP_temperature;BMP_pressure;BME280_temperature;BME280_humidity;BME280_pressure;Samples;Min_cycle;Max_cycle;Signal;HPM_P1;HPM_P2
2023/12/02 00:02:05;;;;;;;7.57;4.22;;;;;;;-0.98;100.00;92283.09;5052422;28;20041;-61
2023/12/02 00:04:31;;;;;;;8.60;4.28;;;;;;;-0.86;100.00;92274.63;5051457;28;20488;-62
2023/12/02 00:06:58;;;;;;;7.85;4.32;;;;;;;-0.81;100.00;92282.31;5052590;28;20045;-62
2023/12/02 00:09:25;;;;;;;6.82;4.00;;;;;;;-1.05;100.00;92273.06;5051221;28;20413;-61
2023/12/02 00:11:52;;;;;;;7.18;4.03;;;;;;;-0.92;100.00;92279.63;5051319;28;20454;-61
2023/12/02 00:14:19;;;;;;;7.60;4.47;;;;;;;-1.35;100.00;92270.69;5033944;28;20486;-62
2023/12/02 00:16:45;;;;;;;8.13;4.75;;;;;;;-1.44;100.00;92271.81;5051325;28;20740;-61
2023/12/02 00:19:12;;;;;;;7.53;4.10;;;;;;;-1.26;100.00;92273.81;5052064;28;20047;-62
2023/12/02 00:21:39;;;;;;;8.05;4.75;;;;;;;-1.29;100.00;92278.03;5049845;28;20052;-62
2023/12/02 00:24:06;;;;;;;8.45;5.03;;;;;;;-1.39;100.00;92276.06;5052056;28;20048;-62
2023/12/02 00:26:33;;;;;;;7.07;3.95;;;;;;;-1.21;100.00;92270.72;5051520;28;20057;-61
2023/12/02 00:29:00;;;;;;;7.65;3.83;;;;;;;-1.29;100.00;92269.97;5050564;28;20079;-61
2023/12/02 00:31:27;;;;;;;7.60;4.15;;;;;;;-1.31;100.00;92271.47;5051363;28;20410;-62
2023/12/02 00:33:53;;;;;;;7.30;4.28;;;;;;;-1.35;100.00;92274.16;5051788;28;20082;-62
2023/12/02 00:36:20;;;;;;;7.25;3.78;;;;;;;-0.99;100.00;92273.47;5050065;28;20036;-62
2023/12/02 00:38:47;;;;;;;7.63;3.65;;;;;;;-1.28;100.00;92262.66;5051948;28;20047;-61
2023/12/02 00:41:14;;;;;;;6.75;3.47;;;;;;;-1.33;100.00;92255.69;5051800;28;20063;-62
2023/12/02 00:43:41;;;;;;;7.32;3.97;;;;;;;-1.18;100.00;92263.81;5038012;28;20049;-62
2023/12/02 00:46:07;;;;;;;7.15;4.20;;;;;;;-1.22;100.00;92267.25;5051752;28;20517;-61
2023/12/02 00:48:34;;;;;;;7.20;4.05;;;;;;;-1.29;100.00;92274.56;5050526;28;20061;-62
2023/12/02 00:51:01;;;;;;;7.35;4.03;;;;;;;-1.60;100.00;92282.16;5051833;28;20477;-62
2023/12/02 00:53:28;;;;;;;7.97;4.10;;;;;;;-1.55;100.00;92270.25;5049916;28;20044;-61
2023/12/02 00:55:55;;;;;;;6.95;3.75;;;;;;;-1.40;100.00;92269.16;5051927;28;20041;-62
2023/12/02 00:58:21;;;;;;;6.95;3.50;;;;;;;-1.23;100.00;92278.41;5051489;28;20536;-62
2023/12/02 01:01:01;;;;;;;6.75;3.70;;;;;;;-1.32;100.00;92275.31;5040525;28;20528;-61
2023/12/02 01:03:28;;;;;;;5.50;3.40;;;;;;;-1.33;100.00;92284.53;5050439;28;20383;-62
2023/12/02 01:05:55;;;;;;;5.85;3.30;;;;;;;-1.03;100.00;92290.38;5051555;28;20443;-62
2023/12/02 01:08:22;;;;;;;5.68;3.45;;;;;;;-0.94;100.00;92289.25;5038414;28;20059;-61
2023/12/02 01:10:48;;;;;;;5.45;2.97;;;;;;;-1.05;100.00;92287.31;5051772;28;20045;-62
2023/12/02 01:13:15;;;;;;;6.03;3.42;;;;;;;-1.13;100.00;92287.66;5050088;28;20033;-61
2023/12/02 01:15:42;;;;;;;5.78;3.13;;;;;;;-1.06;100.00;92277.69;5051457;28;20049;-62
2023/12/02 01:18:09;;;;;;;5.45;2.70;;;;;;;-1.03;100.00;92285.00;5051344;28;20040;-62
2023/12/02 01:20:35;;;;;;;6.05;3.47;;;;;;;-0.86;100.00;92290.78;5049981;28;20066;-62
2023/12/02 01:23:02;;;;;;;5.30;3.15;;;;;;;-1.01;100.00;92296.16;5051097;28;20051;-62
2023/12/02 01:25:30;;;;;;;5.25;2.85;;;;;;;-1.23;100.00;92289.16;5050831;28;20037;-61
2023/12/02 01:27:56;;;;;;;4.63;2.85;;;;;;;-1.23;100.00;92299.94;5051428;28;20052;-62
2023/12/02 01:30:24;;;;;;;5.97;3.63;;;;;;;-1.56;100.00;92304.44;5050799;28;20040;-62
2023/12/02 01:32:51;;;;;;;7.32;3.53;;;;;;;-1.71;100.00;92302.84;5051334;28;20043;-62
2023/12/02 01:35:18;;;;;;;5.65;3.33;;;;;;;-1.56;100.00;92306.38;5049924;28;20045;-62
2023/12/02 01:37:44;;;;;;;6.30;3.60;;;;;;;-1.45;100.00;92302.59;5049060;28;20053;-62
2023/12/02 01:40:12;;;;;;;6.32;3.10;;;;;;;-1.54;100.00;92293.31;5050823;28;20102;-62
2023/12/02 01:42:39;;;;;;;7.13;3.70;;;;;;;-1.33;100.00;92290.69;5050771;28;20496;-61
2023/12/02 01:45:06;;;;;;;5.30;3.15;;;;;;;-1.42;100.00;92288.34;5050916;28;20043;-62
2023/12/02 01:47:33;;;;;;;6.50;3.45;;;;;;;-1.42;100.00;92291.03;5050728;28;20307;-62
2023/12/02 01:50:01;;;;;;;6.65;3.78;;;;;;;-1.36;100.00;92294.16;5050694;28;20067;-62
2023/12/02 01:52:28;;;;;;;5.88;3.00;;;;;;;-1.19;100.00;92308.03;5050260;28;20057;-62
2023/12/02 01:54:54;;;;;;;5.78;3.20;;;;;;;-1.04;100.00;92296.91;5049459;28;20037;-63
2023/12/02 01:57:22;;;;;;;5.32;3.05;;;;;;;-0.96;100.00;92305.00;5050050;28;20040;-60
2023/12/02 01:59:53;;;;;;;5.93;2.95;;;;;;;-0.95;100.00;92298.47;5050677;28;20409;-62
2023/12/02 02:02:21;;;;;;;5.25;2.70;;;;;;;-0.90;100.00;92300.78;5050370;28;20490;-62
2023/12/02 02:04:48;;;;;;;6.80;3.38;;;;;;;-0.85;100.00;92303.09;5050950;28;20469;-62
2023/12/02 02:07:15;;;;;;;6.72;3.90;;;;;;;-0.78;100.00;92307.72;5050897;28;20055;-62
2023/12/02 02:09:46;;;;;;;5.90;3.50;;;;;;;-0.92;100.00;92311.94;5049621;28;20036;-62
2023/12/02 02:12:14;;;;;;;6.55;3.55;;;;;;;-1.08;100.00;92319.59;5049024;28;20037;-62
2023/12/02 02:14:42;;;;;;;6.72;3.65;;;;;;;-1.01;100.00;92316.91;5049471;28;20045;-63
2023/12/02 02:17:08;;;;;;;6.28;3.33;;;;;;;-1.17;100.00;92324.56;5050696;28;20045;-62
2023/12/02 02:19:35;;;;;;;5.85;3.10;;;;;;;-1.09;100.00;92328.81;5049638;28;20044;-62
2023/12/02 02:22:03;;;;;;;6.88;3.33;;;;;;;-1.08;100.00;92330.38;5050167;28;20389;-62
2023/12/02 02:24:30;;;;;;;6.80;3.35;;;;;;;-0.98;100.00;92331.56;5049811;28;20468;-62
2023/12/02 02:26:57;;;;;;;5.63;3.10;;;;;;;-1.07;100.00;92323.81;5050142;28;20043;-63
2023/12/02 02:29:24;;;;;;;6.63;3.53;;;;;;;-1.04;100.00;92320.38;5050060;28;20056;-62
2023/12/02 02:31:51;;;;;;;5.82;3.10;;;;;;;-1.23;100.00;92327.66;5049679;28;20041;-63
2023/12/02 02:34:18;;;;;;;6.30;3.03;;;;;;;-1.04;100.00;92315.75;5050068;28;20363;-62
2023/12/02 02:36:45;;;;;;;7.68;3.58;;;;;;;-1.05;100.00;92310.75;5049033;28;21662;-62
2023/12/02 02:39:12;;;;;;;6.40;3.50;;;;;;;-1.13;100.00;92304.56;5049773;28;20057;-62
2023/12/02 02:41:39;;;;;;;5.80;2.95;;;;;;;-1.13;100.00;92303.81;5049337;28;20047;-62
2023/12/02 02:44:06;;;;;;;6.10;3.28;;;;;;;-1.18;100.00;92304.97;5050030;28;20041;-63
2023/12/02 02:46:32;;;;;;;5.47;2.90;;;;;;;-1.15;100.00;92308.81;5049293;28;20493;-62
2023/12/02 02:48:59;;;;;;;5.78;3.10;;;;;;;-1.05;100.00;92310.75;5049678;28;20045;-62
2023/12/02 02:51:26;;;;;;;6.70;3.47;;;;;;;-1.21;100.00;92303.03;5048859;28;20124;-62
2023/12/02 02:53:53;;;;;;;5.60;3.10;;;;;;;-1.14;100.00;92300.34;5047851;28;20045;-63
2023/12/02 02:56:20;;;;;;;6.65;3.28;;;;;;;-1.08;100.00;92306.13;5048942;28;20044;-61
2023/12/02 02:58:47;;;;;;;6.15;3.10;;;;;;;-1.22;100.00;92310.31;5049664;28;20041;-63
2023/12/02 03:01:14;;;;;;;5.88;2.78;;;;;;;-1.21;100.00;92305.72;5049609;28;20389;-62
2023/12/02 03:03:40;;;;;;;5.88;3.10;;;;;;;-1.30;100.00;92311.47;5049187;28;20049;-62
2023/12/02 03:06:08;;;;;;;5.10;2.75;;;;;;;-1.23;100.00;92308.81;5049240;28;20037;-63
2023/12/02 03:08:35;;;;;;;5.47;3.05;;;;;;;-1.15;100.00;92317.66;5048839;28;20087;-62
2023/12/02 03:11:02;;;;;;;5.60;3.00;;;;;;;-1.08;100.00;92322.28;5049460;28;20485;-62
2023/12/02 03:13:29;;;;;;;6.07;3.30;;;;;;;-1.11;100.00;92333.81;5048878;28;20053;-62
2023/12/02 03:15:56;;;;;;;5.70;3.03;;;;;;;-1.10;100.00;92330.75;5049168;28;20405;-62
2023/12/02 03:18:23;;;;;;;6.28;2.95;;;;;;;-1.13;100.00;92320.72;5048466;28;20033;-61
2023/12/02 03:20:50;;;;;;;6.10;3.10;;;;;;;-1.24;100.00;92328.78;5048234;28;20045;-62
2023/12/02 03:23:17;;;;;;;7.20;3.22;;;;;;;-1.50;100.00;92329.06;5048729;28;20403;-62
2023/12/02 03:25:43;;;;;;;6.18;3.28;;;;;;;-1.49;100.00;92319.84;5047699;28;20037;-62
2023/12/02 03:28:12;;;;;;;7.00;3.78;;;;;;;-1.42;100.00;92325.25;5047583;28;20040;-62
2023/12/02 03:30:39;;;;;;;7.47;3.20;;;;;;;-1.31;100.00;92334.16;5048205;28;20071;-62
2023/12/02 03:33:06;;;;;;;7.95;3.80;;;;;;;-1.18;100.00;92325.72;5049253;28;20037;-62
2023/12/02 03:35:33;;;;;;;7.97;3.83;;;;;;;-1.26;100.00;92333.00;5035474;28;20040;-62
2023/12/02 03:37:59;;;;;;;6.88;3.40;;;;;;;-1.33;100.00;92343.72;5049049;28;20092;-62
2023/12/02 03:40:26;;;;;;;7.75;3.72;;;;;;;-1.26;100.00;92355.31;5048672;28;20044;-62
2023/12/02 03:42:53;;;;;;;8.30;3.70;;;;;;;-1.31;100.00;92371.03;5048833;28;20411;-62
2023/12/02 03:45:21;;;;;;;7.70;4.10;;;;;;;-1.24;100.00;92384.53;5048401;28;20059;-62
2023/12/02 03:47:48;;;;;;;7.47;3.85;;;;;;;-1.51;100.00;92386.72;5048871;28;20036;-62
2023/12/02 03:50:15;;;;;;;9.43;4.05;;;;;;;-1.58;100.00;92390.13;5049285;28;20076;-62
2023/12/02 03:52:47;;;;;;;9.13;4.60;;;;;;;-1.46;100.00;92389.81;5047120;28;20400;-62
2023/12/02 03:55:13;;;;;;;8.60;4.68;;;;;;;-1.42;100.00;92385.22;5046978;28;20033;-63
2023/12/02 03:57:40;;;;;;;9.20;4.53;;;;;;;-1.56;100.00;92384.38;5048295;28;20057;-62
2023/12/02 04:00:13;;;;;;;8.63;4.50;;;;;;;-1.58;100.00;92379.38;5048492;28;20037;-62
2023/12/02 04:02:40;;;;;;;9.88;4.22;;;;;;;-1.57;100.00;92378.25;5048811;28;20612;-62
2023/12/02 04:05:09;;;;;;;9.23;4.68;;;;;;;-1.53;100.00;92378.25;5048966;28;20051;-63
2023/12/02 04:07:37;;;;;;;8.05;4.22;;;;;;;-1.51;100.00;92387.50;5048284;28;20045;-62
2023/12/02 04:10:04;;;;;;;9.18;4.10;;;;;;;-1.52;100.00;92383.25;5048760;28;20485;-62
2023/12/02 04:12:31;;;;;;;8.98;4.63;;;;;;;-1.53;100.00;92389.00;5048350;28;20047;-62
2023/12/02 04:14:57;;;;;;;8.98;4.10;;;;;;;-1.58;100.00;92389.38;5047391;28;20041;-62
2023/12/02 04:17:28;;;;;;;26.35;11.20;;;;;;;-1.59;100.00;92393.97;5048596;28;20053;-62
2023/12/02 04:19:55;;;;;;;12.25;5.70;;;;;;;-1.58;100.00;92397.44;5048513;28;20049;-62
2023/12/02 04:22:22;;;;;;;11.52;5.40;;;;;;;-1.54;100.00;92398.22;5046027;28;20064;-62
2023/12/02 04:24:48;;;;;;;10.75;4.70;;;;;;;-1.53;100.00;92405.94;5041920;28;20375;-62
2023/12/02 04:27:15;;;;;;;7.60;3.85;;;;;;;-1.56;100.00;92411.28;5048671;28;20052;-62
2023/12/02 04:29:42;;;;;;;8.35;3.60;;;;;;;-1.57;100.00;92415.91;5048394;28;20044;-62
2023/12/02 04:32:09;;;;;;;7.85;4.25;;;;;;;-1.47;100.00;92425.16;5047294;28;20045;-64
2023/12/02 04:34:36;;;;;;;7.95;3.80;;;;;;;-1.47;100.00;92433.22;5046798;28;20071;-62
2023/12/02 04:37:03;;;;;;;7.38;3.72;;;;;;;-1.63;100.00;92439.69;5048427;28;20049;-63
2023/12/02 04:39:30;;;;;;;7.75;3.75;;;;;;;-1.57;100.00;92437.44;5051757;28;20075;-62
2023/12/02 04:41:57;;;;;;;8.05;3.80;;;;;;;-1.52;100.00;92447.06;5051954;28;20049;-63
2023/12/02 04:44:24;;;;;;;7.53;3.38;;;;;;;-1.61;100.00;92453.53;5050573;28;20374;-62
2023/12/02 04:46:50;;;;;;;7.65;3.50;;;;;;;-1.53;100.00;92445.50;5050830;28;20047;-62
2023/12/02 04:49:17;;;;;;;6.88;3.30;;;;;;;-1.59;100.00;92447.75;5051955;28;20048;-63
2023/12/02 04:51:44;;;;;;;13.43;6.40;;;;;;;-1.68;100.00;92440.03;5051614;28;20044;-62
2023/12/02 04:54:11;;;;;;;22.55;10.43;;;;;;;-1.57;100.00;92450.09;5052043;28;20055;-63
2023/12/02 04:56:38;;;;;;;7.15;3.55;;;;;;;-1.74;100.00;92441.53;5051790;28;20051;-62
2023/12/02 04:59:04;;;;;;;8.50;4.10;;;;;;;-1.77;100.00;92436.91;5051597;28;20047;-62
2023/12/02 05:01:32;;;;;;;7.57;3.95;;;;;;;-1.86;100.00;92442.59;5051450;28;20048;-63
2023/12/02 05:03:59;;;;;;;8.20;4.00;;;;;;;-1.84;100.00;92440.31;5051987;28;20037;-62
2023/12/02 05:06:26;;;;;;;8.77;4.00;;;;;;;-1.80;100.00;92443.03;5020422;28;20048;-62
2023/12/02 05:08:53;;;;;;;8.10;4.07;;;;;;;-1.82;100.00;92448.75;5051483;28;20059;-62
2023/12/02 05:11:21;;;;;;;8.45;4.43;;;;;;;-1.79;100.00;92452.66;5051183;28;20037;-60
2023/12/02 05:13:48;;;;;;;7.97;4.10;;;;;;;-1.70;100.00;92458.47;5051061;28;20041;-62
2023/12/02 05:16:15;;;;;;;8.68;4.40;;;;;;;-1.63;100.00;92455.03;5051677;28;20040;-62
2023/12/02 05:18:42;;;;;;;10.75;4.75;;;;;;;-1.70;100.00;92450.38;5050736;28;20417;-62
2023/12/02 05:21:09;;;;;;;8.98;4.60;;;;;;;-1.77;100.00;92452.25;5050921;28;20071;-62
2023/12/02 05:23:36;;;;;;;10.60;4.38;;;;;;;-1.79;100.00;92468.78;5050319;28;20119;-63
2023/12/02 05:26:03;;;;;;;10.05;4.90;;;;;;;-1.85;100.00;92472.94;5051483;28;20041;-62
2023/12/02 05:28:30;;;;;;;10.00;4.43;;;;;;;-1.76;100.00;92478.78;5050951;28;20082;-62
2023/12/02 05:30:57;;;;;;;11.27;5.10;;;;;;;-1.79;100.00;92481.44;5051274;28;20409;-62
2023/12/02 05:33:24;;;;;;;10.57;4.60;;;;;;;-1.87;100.00;92480.59;5050474;28;20379;-62
2023/12/02 05:35:51;;;;;;;9.30;4.68;;;;;;;-1.73;100.00;92482.63;5051327;28;20053;-62
2023/12/02 05:38:17;;;;;;;12.48;5.53;;;;;;;-1.73;100.00;92488.00;5051060;28;20041;-62
2023/12/02 05:40:44;;;;;;;11.32;5.40;;;;;;;-1.76;100.00;92488.78;5051054;28;20382;-62
2023/12/02 05:43:11;;;;;;;10.90;5.25;;;;;;;-1.69;100.00;92486.13;5051083;28;20060;-62
2023/12/02 05:45:37;;;;;;;10.05;5.53;;;;;;;-1.88;100.00;92490.59;5050862;28;20498;-62
2023/12/02 05:48:05;;;;;;;9.27;5.00;;;;;;;-1.84;100.00;92490.63;5050519;28;20487;-62
2023/12/02 05:50:32;;;;;;;11.60;5.03;;;;;;;-1.95;100.00;92495.13;5049872;28;20400;-62
2023/12/02 05:52:59;;;;;;;10.07;4.90;;;;;;;-1.92;100.00;92502.47;5047737;28;20043;-62
2023/12/02 05:55:26;;;;;;;11.38;5.35;;;;;;;-1.87;100.00;92499.41;5050230;28;20041;-62
2023/12/02 05:57:53;;;;;;;11.98;5.53;;;;;;;-1.91;100.00;92494.03;5050951;28;20090;-62
2023/12/02 06:00:20;;;;;;;10.75;4.80;;;;;;;-1.99;100.00;92499.72;5050394;28;20041;-62
2023/12/02 06:02:47;;;;;;;9.93;5.47;;;;;;;-2.15;100.00;92500.75;5049631;28;20816;-62
2023/12/02 06:05:14;;;;;;;10.38;4.97;;;;;;;-2.09;100.00;92510.00;5050732;28;20053;-62
2023/12/02 06:07:41;;;;;;;11.27;5.30;;;;;;;-1.96;100.00;92509.72;5050210;28;20059;-62
2023/12/02 06:10:08;;;;;;;11.65;5.10;;;;;;;-1.93;100.00;92512.47;5050440;28;20067;-63
2023/12/02 06:12:35;;;;;;;10.85;4.85;;;;;;;-1.96;100.00;92513.19;5050168;28;20041;-63
2023/12/02 06:15:02;;;;;;;13.52;5.43;;;;;;;-2.08;100.00;92513.47;5050678;28;20455;-62
2023/12/02 06:17:29;;;;;;;11.50;5.43;;;;;;;-2.13;100.00;92517.28;5049748;28;20037;-62
2023/12/02 06:19:56;;;;;;;13.85;5.63;;;;;;;-2.15;100.00;92519.56;5049422;28;20041;-62
2023/12/02 06:22:23;;;;;;;13.48;6.38;;;;;;;-2.18;100.00;92531.03;5049219;28;20071;-63
2023/12/02 06:24:49;;;;;;;12.98;6.43;;;;;;;-2.29;100.00;92532.84;5050483;28;20051;-62
2023/12/02 06:27:16;;;;;;;16.48;7.78;;;;;;;-2.50;100.00;92536.84;5050166;28;20459;-62
2023/12/02 06:29:43;;;;;;;13.48;6.53;;;;;;;-2.48;100.00;92547.22;5049419;28;20045;-62
2023/12/02 06:32:09;;;;;;;15.98;7.35;;;;;;;-2.60;100.00;92553.59;5050185;28;20049;-62
2023/12/02 06:34:36;;;;;;;17.98;7.85;;;;;;;-2.51;100.00;92562.16;5049242;28;20045;-62
2023/12/02 06:37:03;;;;;;;17.35;7.43;;;;;;;-2.68;100.00;92562.72;5050105;28;20043;-62
2023/12/02 06:39:30;;;;;;;14.63;7.25;;;;;;;-2.44;100.00;92564.91;5049011;28;20049;-62
2023/12/02 06:41:57;;;;;;;13.85;6.38;;;;;;;-2.53;100.00;92569.81;5049984;28;20478;-63
2023/12/02 06:44:24;;;;;;;14.77;7.10;;;;;;;-2.55;100.00;92576.69;5049375;28;20094;-62
2023/12/02 06:46:50;;;;;;;14.00;6.78;;;;;;;-2.74;100.00;92574.91;5048544;28;20043;-62
2023/12/02 06:49:17;;;;;;;13.27;5.97;;;;;;;-2.80;100.00;92582.50;5031885;28;20052;-62
2023/12/02 06:51:44;;;;;;;15.73;6.97;;;;;;;-2.58;100.00;92580.88;5049281;28;20041;-62
2023/12/02 06:54:11;;;;;;;15.23;6.63;;;;;;;-2.50;100.00;92587.09;5048242;28;20048;-62
2023/12/02 06:56:38;;;;;;;13.65;6.25;;;;;;;-2.81;100.00;92589.81;5049453;28;20041;-62
2023/12/02 06:59:04;;;;;;;15.75;6.72;;;;;;;-2.86;100.00;92592.03;5048207;28;20321;-62
2023/12/02 07:01:32;;;;;;;14.20;6.72;;;;;;;-3.03;100.00;92599.47;5048393;28;20037;-62
2023/12/02 07:04:00;;;;;;;15.73;6.85;;;;;;;-2.93;100.00;92602.69;5047923;28;20033;-62
2023/12/02 07:06:28;;;;;;;15.10;6.45;;;;;;;-3.09;100.00;92610.88;5048866;28;20124;-63
2023/12/02 07:08:55;;;;;;;13.70;6.32;;;;;;;-2.93;100.00;92619.56;5047504;28;20045;-62
2023/12/02 07:11:22;;;;;;;14.88;6.93;;;;;;;-3.16;100.00;92626.88;5049038;28;20045;-62
2023/12/02 07:13:49;;;;;;;16.20;7.80;;;;;;;-3.14;100.00;92621.91;5048965;28;20375;-62
2023/12/02 07:16:16;;;;;;;16.20;7.88;;;;;;;-3.04;100.00;92608.66;5030921;28;20401;-62
2023/12/02 07:18:43;;;;;;;15.82;7.25;;;;;;;-3.31;100.00;92632.03;5048406;28;20045;-62
2023/12/02 07:21:10;;;;;;;13.30;6.70;;;;;;;-3.23;100.00;92632.91;5048489;28;20045;-62
2023/12/02 07:23:36;;;;;;;13.55;6.47;;;;;;;-3.19;100.00;92638.34;5048060;28;20094;-62
2023/12/02 07:26:04;;;;;;;12.23;6.35;;;;;;;-3.19;100.00;92641.03;5048295;28;20044;-63
2023/12/02 07:28:31;;;;;;;12.88;6.63;;;;;;;-3.03;100.00;92636.28;5048485;28;20055;-62
2023/12/02 07:30:58;;;;;;;12.57;5.95;;;;;;;-3.24;100.00;92639.41;5047033;28;20037;-62
2023/12/02 07:33:24;;;;;;;11.98;5.43;;;;;;;-3.15;100.00;92639.16;5048218;28;20036;-62
2023/12/02 07:35:51;;;;;;;11.98;6.45;;;;;;;-3.11;100.00;92643.44;5047087;28;20041;-62
2023/12/02 07:38:18;;;;;;;12.02;6.32;;;;;;;-3.13;100.00;92647.63;5048405;28;20071;-63
2023/12/02 07:40:45;;;;;;;9.73;4.50;;;;;;;-2.89;100.00;92655.28;5047029;28;20685;-63
2023/12/02 07:43:12;;;;;;;8.45;4.25;;;;;;;-2.88;100.00;92648.78;5048679;28;20287;-62
2023/12/02 07:45:40;;;;;;;7.70;3.80;;;;;;;-2.86;100.00;92640.34;5047937;28;20052;-62
2023/12/02 07:48:07;;;;;;;8.95;4.53;;;;;;;-2.78;100.00;92652.72;5047983;28;20041;-62
2023/12/02 07:50:34;;;;;;;7.85;3.90;;;;;;;-2.72;100.00;92656.66;5047932;28;20126;-62
2023/12/02 07:53:01;;;;;;;10.60;4.40;;;;;;;-2.70;100.00;92664.34;5047822;28;20256;-63
2023/12/02 07:55:29;;;;;;;8.02;3.53;;;;;;;-2.73;100.00;92667.78;5047953;28;20072;-63
2023/12/02 07:57:56;;;;;;;8.15;3.85;;;;;;;-2.81;100.00;92664.97;5046819;28;20053;-62
2023/12/02 08:00:22;;;;;;;9.07;4.13;;;;;;;-2.84;100.00;92675.66;5048171;28;20047;-62
2023/12/02 08:02:50;;;;;;;9.18;3.80;;;;;;;-2.76;100.00;92674.63;5048147;28;20378;-62
2023/12/02 08:05:17;;;;;;;13.43;6.60;;;;;;;-2.98;100.00;92678.91;5030510;28;20543;-62
2023/12/02 08:07:46;;;;;;;10.50;5.40;;;;;;;-2.75;100.00;92689.59;5047011;28;20788;-63
2023/12/02 08:10:13;;;;;;;10.70;5.43;;;;;;;-2.79;100.00;92690.69;5046936;28;20045;-62
2023/12/02 08:12:40;;;;;;;8.07;4.30;;;;;;;-2.82;100.00;92697.53;5047173;28;20080;-63
2023/12/02 08:15:07;;;;;;;9.20;5.18;;;;;;;-2.76;100.00;92701.47;5051396;28;20033;-63
2023/12/02 08:17:35;;;;;;;10.07;4.50;;;;;;;-2.84;100.00;92694.44;5052070;28;20057;-63
2023/12/02 08:20:05;;;;;;;10.55;4.22;;;;;;;-2.88;100.00;92707.84;5052715;28;20047;-62
2023/12/02 08:22:33;;;;;;;11.18;5.25;;;;;;;-3.00;100.00;92716.06;5051545;28;20076;-62
2023/12/02 08:25:00;;;;;;;11.80;5.63;;;;;;;-3.12;100.00;92718.94;5052629;28;20118;-63
2023/12/02 08:27:27;;;;;;;12.80;6.43;;;;;;;-3.15;100.00;92719.66;5052251;28;20037;-62
2023/12/02 08:29:53;;;;;;;11.32;5.50;;;;;;;-2.94;100.00;92741.47;5052497;28;20490;-62
2023/12/02 08:32:20;;;;;;;10.75;4.88;;;;;;;-3.09;100.00;92735.09;5052088;28;20037;-61
2023/12/02 08:34:47;;;;;;;11.80;5.43;;;;;;;-3.11;100.00;92747.34;5052083;28;20057;-62
2023/12/02 08:37:14;;;;;;;11.45;4.93;;;;;;;-2.92;100.00;92744.56;5052219;28;20401;-62
2023/12/02 08:39:40;;;;;;;8.63;4.65;;;;;;;-2.83;100.00;92752.38;5051961;28;20053;-62
2023/12/02 08:42:07;;;;;;;8.38;3.90;;;;;;;-2.98;100.00;92753.28;5052167;28;20041;-62
2023/12/02 08:44:34;;;;;;;10.52;5.10;;;;;;;-2.84;100.00;92753.50;5050382;28;20514;-62
2023/12/02 08:47:01;;;;;;;12.65;5.65;;;;;;;-2.79;100.00;92753.22;5050915;28;20047;-62
2023/12/02 08:49:28;;;;;;;9.20;4.82;;;;;;;-2.70;100.00;92753.72;5049723;28;20096;-62
2023/12/02 08:51:56;;;;;;;8.50;4.55;;;;;;;-2.60;100.00;92760.41;5052203;28;20040;-62
2023/12/02 08:54:23;;;;;;;10.82;5.70;;;;;;;-2.81;100.00;92767.00;5051252;28;20040;-62
2023/12/02 08:56:49;;;;;;;10.68;5.30;;;;;;;-2.80;100.00;92773.13;5051700;28;20041;-62
2023/12/02 08:59:16;;;;;;;8.40;4.90;;;;;;;-2.51;100.00;92774.38;5049952;28;20051;-61
2023/12/02 09:01:43;;;;;;;10.95;4.82;;;;;;;-2.79;100.00;92779.31;5051321;28;20051;-62
2023/12/02 09:04:10;;;;;;;9.18;4.07;;;;;;;-3.03;100.00;92784.66;5051519;28;20149;-62
2023/12/02 09:06:38;;;;;;;9.82;5.35;;;;;;;-3.14;100.00;92780.22;5051483;28;20049;-63
2023/12/02 09:09:07;;;;;;;10.25;3.88;;;;;;;-2.71;100.00;92792.47;5051582;28;20049;-62
2023/12/02 09:11:34;;;;;;;7.78;3.95;;;;;;;-2.67;100.00;92795.22;5051185;28;20048;-63
2023/12/02 09:14:01;;;;;;;8.02;4.03;;;;;;;-2.51;100.00;92792.41;5051623;28;20037;-63
2023/12/02 09:16:29;;;;;;;8.05;4.00;;;;;;;-2.50;100.00;92799.31;5051404;28;20049;-62
2023/12/02 09:18:57;;;;;;;13.75;6.20;;;;;;;-2.31;100.00;92793.09;5050252;28;20037;-62
2023/12/02 09:21:42;;;;;;;12.38;5.72;;;;;;;-2.38;100.00;92799.09;5051058;28;20044;-62
2023/12/02 09:24:27;;;;;;;10.45;5.18;;;;;;;-2.23;100.00;92808.16;5050282;28;20037;-62
2023/12/02 09:26:54;;;;;;;9.75;4.90;;;;;;;-2.34;100.00;92807.22;5050201;28;20498;-62
2023/12/02 09:29:26;;;;;;;10.73;5.80;;;;;;;-2.36;100.00;92809.50;5051012;28;20053;-62
2023/12/02 09:31:53;;;;;;;12.93;7.47;;;;;;;-2.64;100.00;92824.03;5050123;28;20041;-62
2023/12/02 09:34:57;;;;;;;11.98;6.20;;;;;;;-2.48;100.00;92816.59;5049536;28;20393;-61
2023/12/02 09:37:46;;;;;;;14.98;8.02;;;;;;;-2.55;100.00;92824.56;5040716;28;20037;-62
2023/12/02 09:40:22;;;;;;;11.55;6.45;;;;;;;-2.47;100.00;92817.41;5050660;28;20363;-62
2023/12/02 09:43:30;;;;;;;12.73;6.40;;;;;;;-2.46;100.00;92835.84;5050182;28;20054;-63
2023/12/02 09:46:21;;;;;;;15.13;8.10;;;;;;;-2.74;100.00;92830.00;5049985;28;20045;-62
2023/12/02 09:49:04;;;;;;;14.95;7.55;;;;;;;-2.57;100.00;92840.28;5048981;28;20056;-62
2023/12/02 09:51:58;;;;;;;12.23;6.22;;;;;;;-2.36;100.00;92839.06;5049870;28;20410;-62
2023/12/02 09:54:49;;;;;;;15.07;8.13;;;;;;;-2.87;100.00;92845.53;5050313;28;20055;-62
2023/12/02 09:57:54;;;;;;;13.40;7.60;;;;;;;-3.15;100.00;92841.19;5049617;28;20040;-62
2023/12/02 10:00:36;;;;;;;20.55;8.85;;;;;;;-3.31;100.00;92849.31;5041207;28;20822;-61
2023/12/02 10:03:24;;;;;;;18.75;7.40;;;;;;;-2.98;100.00;92857.97;5049994;28;20097;-62
2023/12/02 10:06:06;;;;;;;16.20;6.78;;;;;;;-2.83;100.00;92859.78;5049356;28;21277;-63
2023/12/02 10:08:43;;;;;;;14.73;6.75;;;;;;;-2.73;100.00;92853.06;5049827;28;20044;-62
2023/12/02 10:11:18;;;;;;;18.60;7.07;;;;;;;-2.68;100.00;92863.47;5050288;28;20060;-62
2023/12/02 10:13:54;;;;;;;16.88;8.10;;;;;;;-2.57;100.00;92861.75;5049618;28;20037;-63
2023/12/02 10:16:24;;;;;;;15.05;7.85;;;;;;;-2.68;100.00;92860.78;5050087;28;20070;-62
2023/12/02 10:19:02;;;;;;;15.85;7.57;;;;;;;-2.72;100.00;92868.00;5048618;28;20049;-62
2023/12/02 10:21:32;;;;;;;15.18;7.18;;;;;;;-2.53;100.00;92881.41;5049203;28;20049;-63
2023/12/02 10:24:08;;;;;;;15.50;7.45;;;;;;;-2.92;100.00;92880.69;5049734;28;20052;-62
2023/12/02 10:26:46;;;;;;;17.65;7.18;;;;;;;-2.58;100.00;92886.28;5050114;28;20037;-62
2023/12/02 10:29:27;;;;;;;14.70;7.43;;;;;;;-2.63;100.00;92879.31;5049903;28;20479;-62
2023/12/02 10:32:30;;;;;;;16.52;9.68;;;;;;;-2.83;100.00;92876.66;5049212;28;20562;-62
2023/12/02 10:35:20;;;;;;;13.15;6.47;;;;;;;-2.14;100.00;92886.63;5045399;28;20457;-63
2023/12/02 10:37:56;;;;;;;15.55;6.72;;;;;;;-1.80;100.00;92886.75;5048957;28;21750;-62
2023/12/02 10:40:26;;;;;;;15.00;6.30;;;;;;;-1.56;100.00;92884.75;5048313;28;20045;-62
2023/12/02 10:43:09;;;;;;;11.95;5.47;;;;;;;-1.84;100.00;92875.94;5049715;28;20041;-62
2023/12/02 10:45:40;;;;;;;11.68;4.88;;;;;;;-1.47;100.00;92877.97;5049659;28;20043;-62
2023/12/02 10:48:12;;;;;;;8.40;4.50;;;;;;;-1.50;100.00;92878.69;5049668;28;20122;-62
2023/12/02 10:50:40;;;;;;;9.75;4.90;;;;;;;-1.61;100.00;92883.16;5049332;28;20049;-63
2023/12/02 10:53:09;;;;;;;10.50;5.45;;;;;;;-1.65;100.00;92887.69;5049679;28;20048;-62
2023/12/02 10:55:39;;;;;;;10.45;5.95;;;;;;;-1.76;100.00;92892.94;5048681;28;20049;-63
2023/12/02 10:58:07;;;;;;;9.52;4.90;;;;;;;-1.54;100.00;92893.25;5049440;28;20040;-62
2023/12/02 11:00:35;;;;;;;10.57;5.55;;;;;;;-1.44;100.00;92901.44;5048612;28;20051;-63
2023/12/02 11:03:10;;;;;;;10.27;5.13;;;;;;;-1.64;100.00;92905.41;5048766;28;20047;-63
2023/12/02 11:05:45;;;;;;;13.68;5.65;;;;;;;-1.44;100.00;92908.75;5047936;28;20041;-62
2023/12/02 11:08:19;;;;;;;15.93;7.47;;;;;;;-1.72;100.00;92904.53;5049476;28;20493;-62
2023/12/02 11:10:55;;;;;;;11.35;5.50;;;;;;;-1.46;100.00;92909.13;5048607;28;20676;-63
2023/12/02 11:13:26;;;;;;;14.00;6.63;;;;;;;-1.52;100.00;92913.25;5049003;28;20486;-61
2023/12/02 11:16:19;;;;;;;14.13;7.10;;;;;;;-1.54;100.00;92920.91;5030906;28;20087;-63
2023/12/02 11:19:20;;;;;;;20.73;6.95;;;;;;;-2.01;100.00;92933.69;5048819;28;20986;-62
2023/12/02 11:22:08;;;;;;;15.77;7.22;;;;;;;-1.68;100.00;92934.19;5039587;28;20058;-63
2023/12/02 11:24:41;;;;;;;10.52;5.10;;;;;;;-1.54;100.00;92937.06;5048119;28;20057;-63
2023/12/02 11:27:40;;;;;;;19.17;6.20;;;;;;;-1.60;100.00;92946.59;5049408;28;20064;-62
2023/12/02 11:30:52;;;;;;;13.40;6.25;;;;;;;-1.89;100.00;92956.91;5048246;28;20044;-62
2023/12/02 11:33:22;;;;;;;16.63;7.70;;;;;;;-1.45;100.00;92952.94;5048362;28;20409;-62